sensor_id;sensor_type;location;lat;lon;timestamp;P1;durP1;ratioP1;P2;durP2;ratioP2
82475;SDS011;72099;43.176;76.872;2023-11-19T00:02:34;20.33;;;9.70;;
82475;SDS011;72099;43.176;76.872;2023-11-19T00:05:35;19.35;;;9.32;;
82475;SDS011;72099;43.176;76.872;2023-11-19T00:08:36;17.15;;;8.82;;
82475;SDS011;72099;43.176;76.872;2023-11-19T00:11:37;15.40;;;8.57;;
82475;SDS011;72099;43.176;76.872;2023-11-19T00:14:37;16.33;;;8.40;;
82475;SDS011;72099;43.176;76.872;2023-11-19T00:17:38;14.90;;;8.10;;
82475;SDS011;72099;43.176;76.872;2023-11-19T00:20:44;15.10;;;7.53;;
82475;SDS011;72099;43.176;76.872;2023-11-19T00:23:46;15.20;;;7.82;;
82475;SDS011;72099;43.176;76.872;2023-11-19T00:26:46;12.70;;;7.40;;
82475;SDS011;72099;43.176;76.872;2023-11-19T00:29:47;11.73;;;6.80;;
82475;SDS011;72099;43.176;76.872;2023-11-19T00:32:48;13.07;;;8.55;;
82475;SDS011;72099;43.176;76.872;2023-11-19T00:35:49;17.70;;;9.23;;
82475;SDS011;72099;43.176;76.872;2023-11-19T00:42:23;11.68;;;7.53;;
82475;SDS011;72099;43.176;76.872;2023-11-19T00:45:24;11.25;;;8.60;;
82475;SDS011;72099;43.176;76.872;2023-11-19T00:48:25;12.30;;;9.38;;
82475;SDS011;72099;43.176;76.872;2023-11-19T00:51:27;13.55;;;8.57;;
82475;SDS011;72099;43.176;76.872;2023-11-19T00:54:27;11.48;;;8.73;;
82475;SDS011;72099;43.176;76.872;2023-11-19T01:01:04;12.68;;;8.38;;
82475;SDS011;72099;43.176;76.872;2023-11-19T01:07:06;12.77;;;8.93;;
82475;SDS011;72099;43.176;76.872;2023-11-19T01:10:07;9.77;;;7.43;;
82475;SDS011;72099;43.176;76.872;2023-11-19T01:13:08;18.48;;;6.90;;
82475;SDS011;72099;43.176;76.872;2023-11-19T01:16:10;9.60;;;6.75;;
82475;SDS011;72099;43.176;76.872;2023-11-19T01:19:11;6.63;;;5.05;;
82475;SDS011;72099;43.176;76.872;2023-11-19T01:22:11;7.15;;;4.28;;
82475;SDS011;72099;43.176;76.872;2023-11-19T01:25:12;7.22;;;4.43;;
82475;SDS011;72099;43.176;76.872;2023-11-19T01:28:14;5.47;;;4.07;;
82475;SDS011;72099;43.176;76.872;2023-11-19T01:31:14;4.93;;;3.60;;
82475;SDS011;72099;43.176;76.872;2023-11-19T01:34:16;4.28;;;3.05;;
82475;SDS011;72099;43.176;76.872;2023-11-19T01:40:50;6.07;;;4.10;;
82475;SDS011;72099;43.176;76.872;2023-11-19T01:43:57;5.18;;;4.10;;
82475;SDS011;72099;43.176;76.872;2023-11-19T01:46:59;6.57;;;4.53;;
82475;SDS011;72099;43.176;76.872;2023-11-19T01:50:01;7.32;;;4.80;;
82475;SDS011;72099;43.176;76.872;2023-11-19T01:53:06;4.88;;;4.10;;
82475;SDS011;72099;43.176;76.872;2023-11-19T01:56:07;5.43;;;3.60;;
82475;SDS011;72099;43.176;76.872;2023-11-19T01:59:10;7.25;;;4.15;;
82475;SDS011;72099;43.176;76.872;2023-11-19T02:02:13;4.35;;;3.53;;
82475;SDS011;72099;43.176;76.872;2023-11-19T02:05:14;5.28;;;4.25;;
82475;SDS011;72099;43.176;76.872;2023-11-19T02:08:16;9.85;;;4.57;;
82475;SDS011;72099;43.176;76.872;2023-11-19T02:11:18;5.47;;;4.03;;
82475;SDS011;72099;43.176;76.872;2023-11-19T02:14:18;6.47;;;4.85;;
82475;SDS011;72099;43.176;76.872;2023-11-19T02:17:28;4.70;;;3.80;;
82475;SDS011;72099;43.176;76.872;2023-11-19T02:20:31;5.25;;;3.67;;
82475;SDS011;72099;43.176;76.872;2023-11-19T02:23:32;5.18;;;3.97;;
82475;SDS011;72099;43.176;76.872;2023-11-19T02:29:44;5.07;;;3.65;;
82475;SDS011;72099;43.176;76.872;2023-11-19T02:32:45;6.93;;;4.28;;
82475;SDS011;72099;43.176;76.872;2023-11-19T02:35:46;5.32;;;3.20;;
82475;SDS011;72099;43.176;76.872;2023-11-19T02:38:47;5.03;;;4.15;;
82475;SDS011;72099;43.176;76.872;2023-11-19T02:41:47;5.07;;;4.03;;
82475;SDS011;72099;43.176;76.872;2023-11-19T02:44:52;5.13;;;3.58;;
82475;SDS011;72099;43.176;76.872;2023-11-19T02:47:53;5.45;;;3.80;;
82475;SDS011;72099;43.176;76.872;2023-11-19T02:50:57;6.72;;;4.03;;
82475;SDS011;72099;43.176;76.872;2023-11-19T02:53:58;4.72;;;3.72;;
82475;SDS011;72099;43.176;76.872;2023-11-19T02:56:59;5.93;;;3.92;;
82475;SDS011;72099;43.176;76.872;2023-11-19T03:00:01;5.63;;;4.22;;
82475;SDS011;72099;43.176;76.872;2023-11-19T03:03:12;4.65;;;3.40;;
82475;SDS011;72099;43.176;76.872;2023-11-19T03:06:20;5.90;;;4.75;;
82475;SDS011;72099;43.176;76.872;2023-11-19T03:09:24;5.20;;;3.58;;
82475;SDS011;72099;43.176;76.872;2023-11-19T03:12:25;5.85;;;3.40;;
82475;SDS011;72099;43.176;76.872;2023-11-19T03:18:27;4.50;;;2.72;;
82475;SDS011;72099;43.176;76.872;2023-11-19T03:21:31;4.30;;;2.55;;
82475;SDS011;72099;43.176;76.872;2023-11-19T03:24:32;5.78;;;2.65;;
82475;SDS011;72099;43.176;76.872;2023-11-19T03:27:33;4.57;;;2.80;;
82475;SDS011;72099;43.176;76.872;2023-11-19T03:30:42;6.22;;;2.80;;
82475;SDS011;72099;43.176;76.872;2023-11-19T03:33:42;5.60;;;3.40;;
82475;SDS011;72099;43.176;76.872;2023-11-19T03:36:43;8.45;;;3.17;;
82475;SDS011;72099;43.176;76.872;2023-11-19T03:39:44;7.20;;;3.03;;
82475;SDS011;72099;43.176;76.872;2023-11-19T03:42:48;4.18;;;2.60;;
82475;SDS011;72099;43.176;76.872;2023-11-19T03:45:49;5.78;;;3.03;;
82475;SDS011;72099;43.176;76.872;2023-11-19T03:48:50;3.78;;;2.60;;
82475;SDS011;72099;43.176;76.872;2023-11-19T03:51:50;6.28;;;2.70;;
82475;SDS011;72099;43.176;76.872;2023-11-19T03:54:51;4.50;;;2.92;;
82475;SDS011;72099;43.176;76.872;2023-11-19T03:57:52;6.68;;;2.50;;
82475;SDS011;72099;43.176;76.872;2023-11-19T04:00:53;5.60;;;2.67;;
82475;SDS011;72099;43.176;76.872;2023-11-19T04:03:54;5.70;;;2.60;;
82475;SDS011;72099;43.176;76.872;2023-11-19T04:06:56;9.25;;;3.17;;
82475;SDS011;72099;43.176;76.872;2023-11-19T04:09:58;5.00;;;2.70;;
82475;SDS011;72099;43.176;76.872;2023-11-19T04:12:59;6.20;;;3.03;;
82475;SDS011;72099;43.176;76.872;2023-11-19T04:16:00;3.90;;;2.85;;
82475;SDS011;72099;43.176;76.872;2023-11-19T04:22:02;4.13;;;2.58;;
82475;SDS011;72099;43.176;76.872;2023-11-19T04:25:03;3.60;;;2.28;;
82475;SDS011;72099;43.176;76.872;2023-11-19T04:28:04;3.08;;;2.28;;
82475;SDS011;72099;43.176;76.872;2023-11-19T04:31:05;5.45;;;2.20;;
82475;SDS011;72099;43.176;76.872;2023-11-19T04:34:06;7.75;;;2.28;;
82475;SDS011;72099;43.176;76.872;2023-11-19T04:37:07;3.53;;;2.08;;
82475;SDS011;72099;43.176;76.872;2023-11-19T04:40:09;3.33;;;2.30;;
82475;SDS011;72099;43.176;76.872;2023-11-19T04:43:12;5.07;;;2.35;;
82475;SDS011;72099;43.176;76.872;2023-11-19T04:46:13;4.38;;;2.22;;
82475;SDS011;72099;43.176;76.872;2023-11-19T04:49:13;5.97;;;2.40;;
82475;SDS011;72099;43.176;76.872;2023-11-19T04:52:14;4.78;;;3.05;;
82475;SDS011;72099;43.176;76.872;2023-11-19T04:55:15;5.18;;;3.13;;
82475;SDS011;72099;43.176;76.872;2023-11-19T04:58:16;6.35;;;3.22;;
82475;SDS011;72099;43.176;76.872;2023-11-19T05:01:17;10.05;;;3.97;;
82475;SDS011;72099;43.176;76.872;2023-11-19T05:07:22;8.50;;;4.45;;
82475;SDS011;72099;43.176;76.872;2023-11-19T05:10:23;5.65;;;4.10;;
82475;SDS011;72099;43.176;76.872;2023-11-19T05:13:25;7.30;;;4.88;;
82475;SDS011;72099;43.176;76.872;2023-11-19T05:16:25;8.98;;;5.03;;
82475;SDS011;72099;43.176;76.872;2023-11-19T05:22:58;8.35;;;5.07;;
82475;SDS011;72099;43.176;76.872;2023-11-19T05:26:03;7.43;;;4.70;;
82475;SDS011;72099;43.176;76.872;2023-11-19T05:29:04;7.80;;;4.60;;
82475;SDS011;72099;43.176;76.872;2023-11-19T05:35:07;6.88;;;5.40;;
82475;SDS011;72099;43.176;76.872;2023-11-19T05:38:08;9.45;;;5.18;;
82475;SDS011;72099;43.176;76.872;2023-11-19T05:44:10;8.40;;;5.45;;
82475;SDS011;72099;43.176;76.872;2023-11-19T05:50:12;10.65;;;6.65;;
82475;SDS011;72099;43.176;76.872;2023-11-19T05:53:13;9.35;;;5.75;;
82475;SDS011;72099;43.176;76.872;2023-11-19T05:56:15;10.45;;;6.30;;
82475;SDS011;72099;43.176;76.872;2023-11-19T05:59:21;8.70;;;5.95;;
82475;SDS011;72099;43.176;76.872;2023-11-19T06:02:23;12.57;;;7.40;;
82475;SDS011;72099;43.176;76.872;2023-11-19T06:05:24;10.02;;;5.88;;
82475;SDS011;72099;43.176;76.872;2023-11-19T06:08:24;10.82;;;5.65;;
82475;SDS011;72099;43.176;76.872;2023-11-19T06:11:27;12.27;;;6.43;;
82475;SDS011;72099;43.176;76.872;2023-11-19T06:14:28;14.23;;;7.15;;
82475;SDS011;72099;43.176;76.872;2023-11-19T06:17:29;10.43;;;6.25;;
82475;SDS011;72099;43.176;76.872;2023-11-19T06:20:30;9.48;;;6.97;;
82475;SDS011;72099;43.176;76.872;2023-11-19T06:23:32;13.23;;;7.53;;
82475;SDS011;72099;43.176;76.872;2023-11-19T06:26:32;10.77;;;6.60;;
82475;SDS011;72099;43.176;76.872;2023-11-19T06:29:33;11.80;;;6.88;;
82475;SDS011;72099;43.176;76.872;2023-11-19T06:32:34;9.38;;;6.70;;
82475;SDS011;72099;43.176;76.872;2023-11-19T06:35:35;9.95;;;6.43;;
82475;SDS011;72099;43.176;76.872;2023-11-19T06:38:38;9.23;;;6.40;;
82475;SDS011;72099;43.176;76.872;2023-11-19T06:41:40;11.43;;;7.40;;
82475;SDS011;72099;43.176;76.872;2023-11-19T06:44:45;10.13;;;6.97;;
82475;SDS011;72099;43.176;76.872;2023-11-19T06:47:46;10.50;;;7.07;;
82475;SDS011;72099;43.176;76.872;2023-11-19T06:50:47;9.43;;;5.68;;
82475;SDS011;72099;43.176;76.872;2023-11-19T06:53:48;8.35;;;5.50;;
82475;SDS011;72099;43.176;76.872;2023-11-19T06:56:49;11.55;;;5.60;;
82475;SDS011;72099;43.176;76.872;2023-11-19T06:59:50;10.07;;;6.80;;
82475;SDS011;72099;43.176;76.872;2023-11-19T07:02:50;9.43;;;7.13;;
82475;SDS011;72099;43.176;76.872;2023-11-19T07:05:54;8.93;;;6.68;;
82475;SDS011;72099;43.176;76.872;2023-11-19T07:08:55;10.35;;;6.40;;
82475;SDS011;72099;43.176;76.872;2023-11-19T07:11:57;9.05;;;6.40;;
82475;SDS011;72099;43.176;76.872;2023-11-19T07:15:00;9.13;;;5.97;;
82475;SDS011;72099;43.176;76.872;2023-11-19T07:18:02;8.00;;;5.75;;
82475;SDS011;72099;43.176;76.872;2023-11-19T07:21:04;9.27;;;5.93;;
82475;SDS011;72099;43.176;76.872;2023-11-19T07:24:05;10.95;;;6.00;;
82475;SDS011;72099;43.176;76.872;2023-11-19T07:27:07;9.65;;;6.35;;
82475;SDS011;72099;43.176;76.872;2023-11-19T07:30:09;9.20;;;6.60;;
82475;SDS011;72099;43.176;76.872;2023-11-19T07:33:10;12.25;;;6.68;;
82475;SDS011;72099;43.176;76.872;2023-11-19T07:36:12;8.90;;;6.28;;
82475;SDS011;72099;43.176;76.872;2023-11-19T07:39:13;11.57;;;6.97;;
82475;SDS011;72099;43.176;76.872;2023-11-19T07:42:14;14.63;;;6.97;;
82475;SDS011;72099;43.176;76.872;2023-11-19T07:45:15;13.13;;;6.30;;
82475;SDS011;72099;43.176;76.872;2023-11-19T07:48:16;11.35;;;6.70;;
82475;SDS011;72099;43.176;76.872;2023-11-19T07:51:22;9.85;;;6.68;;
82475;SDS011;72099;43.176;76.872;2023-11-19T07:54:23;8.35;;;5.70;;
82475;SDS011;72099;43.176;76.872;2023-11-19T07:57:24;7.15;;;5.20;;
82475;SDS011;72099;43.176;76.872;2023-11-19T08:00:27;8.25;;;4.85;;
82475;SDS011;72099;43.176;76.872;2023-11-19T08:03:28;6.65;;;4.63;;
82475;SDS011;72099;43.176;76.872;2023-11-19T08:06:29;6.10;;;4.63;;
82475;SDS011;72099;43.176;76.872;2023-11-19T08:09:30;6.80;;;4.57;;
82475;SDS011;72099;43.176;76.872;2023-11-19T08:12:31;6.38;;;4.50;;
82475;SDS011;72099;43.176;76.872;2023-11-19T08:15:35;7.45;;;4.55;;
82475;SDS011;72099;43.176;76.872;2023-11-19T08:18:36;7.72;;;4.60;;
82475;SDS011;72099;43.176;76.872;2023-11-19T08:21:37;6.22;;;4.60;;
82475;SDS011;72099;43.176;76.872;2023-11-19T08:24:38;6.35;;;4.57;;
82475;SDS011;72099;43.176;76.872;2023-11-19T08:27:39;6.95;;;5.05;;
82475;SDS011;72099;43.176;76.872;2023-11-19T08:30:40;7.90;;;4.68;;
82475;SDS011;72099;43.176;76.872;2023-11-19T08:33:41;6.13;;;4.13;;
82475;SDS011;72099;43.176;76.872;2023-11-19T08:36:42;4.63;;;3.40;;
82475;SDS011;72099;43.176;76.872;2023-11-19T08:42:43;5.57;;;3.67;;
82475;SDS011;72099;43.176;76.872;2023-11-19T08:45:44;5.60;;;3.13;;
82475;SDS011;72099;43.176;76.872;2023-11-19T08:52:21;5.57;;;3.95;;
82475;SDS011;72099;43.176;76.872;2023-11-19T08:55:22;6.07;;;4.18;;
82475;SDS011;72099;43.176;76.872;2023-11-19T08:58:23;4.90;;;3.92;;
82475;SDS011;72099;43.176;76.872;2023-11-19T09:01:24;5.43;;;3.72;;
82475;SDS011;72099;43.176;76.872;2023-11-19T09:04:25;5.63;;;3.40;;
82475;SDS011;72099;43.176;76.872;2023-11-19T09:07:26;7.05;;;4.75;;
82475;SDS011;72099;43.176;76.872;2023-11-19T09:10:28;7.13;;;4.75;;
82475;SDS011;72099;43.176;76.872;2023-11-19T09:13:29;7.85;;;5.75;;
82475;SDS011;72099;43.176;76.872;2023-11-19T09:16:30;9.05;;;6.07;;
82475;SDS011;72099;43.176;76.872;2023-11-19T09:19:32;9.98;;;7.00;;
82475;SDS011;72099;43.176;76.872;2023-11-19T09:22:34;11.18;;;6.68;;
82475;SDS011;72099;43.176;76.872;2023-11-19T09:25:35;13.15;;;7.25;;
82475;SDS011;72099;43.176;76.872;2023-11-19T09:31:40;10.50;;;5.38;;
82475;SDS011;72099;43.176;76.872;2023-11-19T09:34:41;12.25;;;6.85;;
82475;SDS011;72099;43.176;76.872;2023-11-19T09:37:43;11.05;;;6.22;;
82475;SDS011;72099;43.176;76.872;2023-11-19T09:40:43;9.60;;;5.88;;
82475;SDS011;72099;43.176;76.872;2023-11-19T09:43:44;11.00;;;6.55;;
82475;SDS011;72099;43.176;76.872;2023-11-19T09:46:46;11.93;;;7.05;;
82475;SDS011;72099;43.176;76.872;2023-11-19T09:49:49;11.40;;;6.68;;
82475;SDS011;72099;43.176;76.872;2023-11-19T09:52:50;13.75;;;7.05;;
82475;SDS011;72099;43.176;76.872;2023-11-19T09:55:51;11.07;;;7.07;;
82475;SDS011;72099;43.176;76.872;2023-11-19T09:58:53;11.63;;;7.63;;
82475;SDS011;72099;43.176;76.872;2023-11-19T10:01:55;13.90;;;7.60;;
82475;SDS011;72099;43.176;76.872;2023-11-19T10:04:57;11.63;;;7.05;;
82475;SDS011;72099;43.176;76.872;2023-11-19T10:08:01;13.48;;;7.20;;
82475;SDS011;72099;43.176;76.872;2023-11-19T10:11:03;11.40;;;7.50;;
82475;SDS011;72099;43.176;76.872;2023-11-19T10:14:04;14.27;;;7.95;;
82475;SDS011;72099;43.176;76.872;2023-11-19T10:17:07;13.63;;;9.13;;
82475;SDS011;72099;43.176;76.872;2023-11-19T10:20:08;16.92;;;8.32;;
82475;SDS011;72099;43.176;76.872;2023-11-19T10:23:10;14.27;;;8.55;;
82475;SDS011;72099;43.176;76.872;2023-11-19T10:26:12;12.27;;;7.35;;
82475;SDS011;72099;43.176;76.872;2023-11-19T10:29:13;18.52;;;9.70;;
82475;SDS011;72099;43.176;76.872;2023-11-19T10:32:14;14.80;;;8.95;;
82475;SDS011;72099;43.176;76.872;2023-11-19T10:35:15;17.25;;;9.65;;
82475;SDS011;72099;43.176;76.872;2023-11-19T10:41:26;19.20;;;10.38;;
82475;SDS011;72099;43.176;76.872;2023-11-19T10:44:31;16.85;;;10.00;;
82475;SDS011;72099;43.176;76.872;2023-11-19T10:47:34;19.38;;;10.65;;
82475;SDS011;72099;43.176;76.872;2023-11-19T10:50:37;17.50;;;8.98;;
82475;SDS011;72099;43.176;76.872;2023-11-19T10:53:39;18.65;;;9.82;;
82475;SDS011;72099;43.176;76.872;2023-11-19T10:56:44;15.07;;;10.20;;
82475;SDS011;72099;43.176;76.872;2023-11-19T10:59:49;15.95;;;8.70;;
82475;SDS011;72099;43.176;76.872;2023-11-19T11:02:56;15.25;;;9.27;;
82475;SDS011;72099;43.176;76.872;2023-11-19T11:06:02;19.42;;;10.05;;
82475;SDS011;72099;43.176;76.872;2023-11-19T11:09:05;20.38;;;10.93;;
82475;SDS011;72099;43.176;76.872;2023-11-19T11:12:07;17.52;;;9.77;;
82475;SDS011;72099;43.176;76.872;2023-11-19T11:15:11;18.25;;;9.88;;
82475;SDS011;72099;43.176;76.872;2023-11-19T11:18:15;18.23;;;9.70;;
82475;SDS011;72099;43.176;76.872;2023-11-19T11:21:21;17.55;;;9.38;;
82475;SDS011;72099;43.176;76.872;2023-11-19T11:24:28;16.80;;;8.32;;
82475;SDS011;72099;43.176;76.872;2023-11-19T11:31:15;17.98;;;9.45;;
82475;SDS011;72099;43.176;76.872;2023-11-19T11:37:46;17.88;;;8.40;;
82475;SDS011;72099;43.176;76.872;2023-11-19T11:44:30;20.67;;;10.55;;
82475;SDS011;72099;43.176;76.872;2023-11-19T11:48:06;18.55;;;8.98;;
82475;SDS011;72099;43.176;76.872;2023-11-19T11:51:10;17.45;;;9.85;;
82475;SDS011;72099;43.176;76.872;2023-11-19T11:54:25;17.70;;;9.45;;
82475;SDS011;72099;43.176;76.872;2023-11-19T11:57:27;19.65;;;10.55;;
82475;SDS011;72099;43.176;76.872;2023-11-19T12:00:40;17.60;;;10.13;;
82475;SDS011;72099;43.176;76.872;2023-11-19T12:03:44;23.05;;;11.68;;
82475;SDS011;72099;43.176;76.872;2023-11-19T12:07:02;23.35;;;11.18;;
82475;SDS011;72099;43.176;76.872;2023-11-19T12:10:07;20.00;;;10.60;;
82475;SDS011;72099;43.176;76.872;2023-11-19T12:13:12;18.25;;;11.20;;
82475;SDS011;72099;43.176;76.872;2023-11-19T12:16:13;20.15;;;11.45;;
82475;SDS011;72099;43.176;76.872;2023-11-19T12:22:52;22.50;;;10.88;;
82475;SDS011;72099;43.176;76.872;2023-11-19T12:25:54;16.30;;;10.45;;
82475;SDS011;72099;43.176;76.872;2023-11-19T12:31:59;17.63;;;10.05;;
82475;SDS011;72099;43.176;76.872;2023-11-19T12:35:03;17.35;;;11.10;;
82475;SDS011;72099;43.176;76.872;2023-11-19T12:38:04;29.27;;;15.68;;
82475;SDS011;72099;43.176;76.872;2023-11-19T12:41:08;26.95;;;14.85;;
82475;SDS011;72099;43.176;76.872;2023-11-19T12:44:11;34.60;;;18.08;;
82475;SDS011;72099;43.176;76.872;2023-11-19T12:47:12;44.33;;;21.08;;
82475;SDS011;72099;43.176;76.872;2023-11-19T12:50:13;35.05;;;20.20;;
82475;SDS011;72099;43.176;76.872;2023-11-19T12:53:14;38.30;;;20.17;;
82475;SDS011;72099;43.176;76.872;2023-11-19T12:56:15;49.33;;;26.92;;
82475;SDS011;72099;43.176;76.872;2023-11-19T12:59:17;36.63;;;20.10;;
82475;SDS011;72099;43.176;76.872;2023-11-19T13:02:17;34.67;;;18.75;;
82475;SDS011;72099;43.176;76.872;2023-11-19T13:08:36;33.58;;;16.75;;
82475;SDS011;72099;43.176;76.872;2023-11-19T13:11:41;35.15;;;18.48;;
82475;SDS011;72099;43.176;76.872;2023-11-19T13:14:42;24.77;;;15.63;;
82475;SDS011;72099;43.176;76.872;2023-11-19T13:17:44;28.90;;;17.15;;
82475;SDS011;72099;43.176;76.872;2023-11-19T13:20:47;29.63;;;15.90;;
82475;SDS011;72099;43.176;76.872;2023-11-19T13:23:48;22.50;;;15.32;;
82475;SDS011;72099;43.176;76.872;2023-11-19T13:26:50;26.80;;;17.23;;
82475;SDS011;72099;43.176;76.872;2023-11-19T13:29:50;30.67;;;17.70;;
82475;SDS011;72099;43.176;76.872;2023-11-19T13:32:51;27.08;;;16.58;;
82475;SDS011;72099;43.176;76.872;2023-11-19T13:35:55;30.02;;;17.17;;
82475;SDS011;72099;43.176;76.872;2023-11-19T13:38:57;38.50;;;20.05;;
82475;SDS011;72099;43.176;76.872;2023-11-19T13:41:59;52.80;;;28.25;;
82475;SDS011;72099;43.176;76.872;2023-11-19T13:45:01;54.17;;;29.63;;
82475;SDS011;72099;43.176;76.872;2023-11-19T13:48:03;67.25;;;33.40;;
82475;SDS011;72099;43.176;76.872;2023-11-19T13:51:04;69.82;;;33.50;;
82475;SDS011;72099;43.176;76.872;2023-11-19T13:54:05;66.65;;;32.17;;
82475;SDS011;72099;43.176;76.872;2023-11-19T13:57:08;65.72;;;32.08;;
82475;SDS011;72099;43.176;76.872;2023-11-19T14:00:12;61.63;;;31.58;;
82475;SDS011;72099;43.176;76.872;2023-11-19T14:03:14;53.47;;;27.70;;
82475;SDS011;72099;43.176;76.872;2023-11-19T14:06:14;53.78;;;27.00;;
82475;SDS011;72099;43.176;76.872;2023-11-19T14:15:43;38.20;;;21.30;;
82475;SDS011;72099;43.176;76.872;2023-11-19T14:18:44;38.10;;;20.45;;
82475;SDS011;72099;43.176;76.872;2023-11-19T14:24:47;47.17;;;24.50;;
82475;SDS011;72099;43.176;76.872;2023-11-19T14:27:48;38.47;;;22.58;;
82475;SDS011;72099;43.176;76.872;2023-11-19T14:33:54;42.35;;;25.15;;
82475;SDS011;72099;43.176;76.872;2023-11-19T14:36:56;37.08;;;21.92;;
82475;SDS011;72099;43.176;76.872;2023-11-19T14:39:57;38.13;;;21.35;;
82475;SDS011;72099;43.176;76.872;2023-11-19T14:42:58;38.10;;;22.95;;
82475;SDS011;72099;43.176;76.872;2023-11-19T14:45:59;38.97;;;21.92;;
82475;SDS011;72099;43.176;76.872;2023-11-19T14:52:31;36.13;;;21.30;;
82475;SDS011;72099;43.176;76.872;2023-11-19T14:55:32;42.45;;;22.45;;
82475;SDS011;72099;43.176;76.872;2023-11-19T14:58:33;69.18;;;28.50;;
82475;SDS011;72099;43.176;76.872;2023-11-19T15:01:34;60.75;;;28.95;;
82475;SDS011;72099;43.176;76.872;2023-11-19T15:04:36;59.10;;;29.27;;
82475;SDS011;72099;43.176;76.872;2023-11-19T15:07:37;53.10;;;28.48;;
82475;SDS011;72099;43.176;76.872;2023-11-19T15:10:39;55.40;;;27.25;;
82475;SDS011;72099;43.176;76.872;2023-11-19T15:13:43;51.03;;;24.70;;
82475;SDS011;72099;43.176;76.872;2023-11-19T15:16:44;47.17;;;26.27;;
82475;SDS011;72099;43.176;76.872;2023-11-19T15:19:46;52.17;;;27.40;;
82475;SDS011;72099;43.176;76.872;2023-11-19T15:22:48;52.35;;;26.63;;
82475;SDS011;72099;43.176;76.872;2023-11-19T15:25:49;49.33;;;26.63;;
82475;SDS011;72099;43.176;76.872;2023-11-19T15:28:49;58.00;;;28.33;;
82475;SDS011;72099;43.176;76.872;2023-11-19T15:31:50;57.05;;;29.35;;
82475;SDS011;72099;43.176;76.872;2023-11-19T15:34:51;59.53;;;28.50;;
82475;SDS011;72099;43.176;76.872;2023-11-19T15:40:53;50.10;;;26.70;;
82475;SDS011;72099;43.176;76.872;2023-11-19T15:43:54;56.90;;;29.92;;
82475;SDS011;72099;43.176;76.872;2023-11-19T15:46:55;57.90;;;28.55;;
82475;SDS011;72099;43.176;76.872;2023-11-19T15:49:56;54.33;;;29.27;;
82475;SDS011;72099;43.176;76.872;2023-11-19T15:52:57;52.50;;;26.38;;
82475;SDS011;72099;43.176;76.872;2023-11-19T15:55:59;53.58;;;28.83;;
82475;SDS011;72099;43.176;76.872;2023-11-19T15:59:01;49.20;;;28.05;;
82475;SDS011;72099;43.176;76.872;2023-11-19T16:02:04;51.28;;;28.23;;
82475;SDS011;72099;43.176;76.872;2023-11-19T16:05:05;48.65;;;27.50;;
82475;SDS011;72099;43.176;76.872;2023-11-19T16:08:08;55.75;;;28.30;;
82475;SDS011;72099;43.176;76.872;2023-11-19T16:11:10;53.85;;;27.40;;
82475;SDS011;72099;43.176;76.872;2023-11-19T16:14:13;52.22;;;27.23;;
82475;SDS011;72099;43.176;76.872;2023-11-19T16:17:14;51.90;;;26.92;;
82475;SDS011;72099;43.176;76.872;2023-11-19T16:20:15;49.03;;;25.95;;
82475;SDS011;72099;43.176;76.872;2023-11-19T16:23:16;44.33;;;25.02;;
82475;SDS011;72099;43.176;76.872;2023-11-19T16:26:19;47.70;;;25.05;;
82475;SDS011;72099;43.176;76.872;2023-11-19T16:32:58;49.08;;;24.35;;
82475;SDS011;72099;43.176;76.872;2023-11-19T16:35:59;41.45;;;23.35;;
82475;SDS011;72099;43.176;76.872;2023-11-19T16:39:00;40.97;;;24.27;;
82475;SDS011;72099;43.176;76.872;2023-11-19T16:42:01;43.95;;;22.52;;
82475;SDS011;72099;43.176;76.872;2023-11-19T16:45:02;41.13;;;20.33;;
82475;SDS011;72099;43.176;76.872;2023-11-19T16:48:03;40.85;;;21.42;;
82475;SDS011;72099;43.176;76.872;2023-11-19T16:51:11;38.28;;;20.13;;
82475;SDS011;72099;43.176;76.872;2023-11-19T16:54:14;46.10;;;20.90;;
82475;SDS011;72099;43.176;76.872;2023-11-19T16:57:15;45.90;;;22.25;;
82475;SDS011;72099;43.176;76.872;2023-11-19T17:00:16;40.20;;;20.95;;
82475;SDS011;72099;43.176;76.872;2023-11-19T17:03:18;37.25;;;20.38;;
82475;SDS011;72099;43.176;76.872;2023-11-19T17:06:20;38.95;;;20.23;;
82475;SDS011;72099;43.176;76.872;2023-11-19T17:12:57;36.00;;;18.95;;
82475;SDS011;72099;43.176;76.872;2023-11-19T17:15:58;34.92;;;16.98;;
82475;SDS011;72099;43.176;76.872;2023-11-19T17:18:59;34.20;;;16.77;;
82475;SDS011;72099;43.176;76.872;2023-11-19T17:22:00;32.72;;;17.15;;
82475;SDS011;72099;43.176;76.872;2023-11-19T17:25:01;33.22;;;17.27;;
82475;SDS011;72099;43.176;76.872;2023-11-19T17:28:03;32.85;;;14.95;;
82475;SDS011;72099;43.176;76.872;2023-11-19T17:31:07;30.75;;;16.05;;
82475;SDS011;72099;43.176;76.872;2023-11-19T17:34:08;32.33;;;16.15;;
82475;SDS011;72099;43.176;76.872;2023-11-19T17:37:09;34.28;;;15.38;;
82475;SDS011;72099;43.176;76.872;2023-11-19T17:40:09;33.75;;;14.75;;
82475;SDS011;72099;43.176;76.872;2023-11-19T17:43:13;29.52;;;13.68;;
82475;SDS011;72099;43.176;76.872;2023-11-19T17:46:15;30.20;;;15.13;;
82475;SDS011;72099;43.176;76.872;2023-11-19T17:49:16;24.73;;;12.57;;
82475;SDS011;72099;43.176;76.872;2023-11-19T17:52:19;22.92;;;10.63;;
82475;SDS011;72099;43.176;76.872;2023-11-19T17:55:20;20.77;;;10.00;;
82475;SDS011;72099;43.176;76.872;2023-11-19T17:58:22;18.73;;;9.02;;
82475;SDS011;72099;43.176;76.872;2023-11-19T18:01:23;17.45;;;7.65;;
82475;SDS011;72099;43.176;76.872;2023-11-19T18:04:24;17.73;;;8.57;;
82475;SDS011;72099;43.176;76.872;2023-11-19T18:07:28;15.10;;;7.35;;
82475;SDS011;72099;43.176;76.872;2023-11-19T18:10:29;15.77;;;6.18;;
82475;SDS011;72099;43.176;76.872;2023-11-19T18:13:30;13.48;;;6.80;;
82475;SDS011;72099;43.176;76.872;2023-11-19T18:16:32;12.93;;;5.15;;
82475;SDS011;72099;43.176;76.872;2023-11-19T18:19:33;10.10;;;4.18;;
82475;SDS011;72099;43.176;76.872;2023-11-19T18:22:34;8.00;;;2.97;;
82475;SDS011;72099;43.176;76.872;2023-11-19T18:25:34;6.60;;;3.40;;
82475;SDS011;72099;43.176;76.872;2023-11-19T18:32:11;8.55;;;3.20;;
82475;SDS011;72099;43.176;76.872;2023-11-19T18:35:13;4.60;;;2.70;;
82475;SDS011;72099;43.176;76.872;2023-11-19T18:38:16;5.03;;;2.30;;
82475;SDS011;72099;43.176;76.872;2023-11-19T18:41:17;4.55;;;2.60;;
82475;SDS011;72099;43.176;76.872;2023-11-19T18:44:18;4.88;;;2.33;;
82475;SDS011;72099;43.176;76.872;2023-11-19T18:47:19;4.03;;;2.15;;
82475;SDS011;72099;43.176;76.872;2023-11-19T18:50:21;2.33;;;1.63;;
82475;SDS011;72099;43.176;76.872;2023-11-19T18:53:23;5.03;;;1.90;;
82475;SDS011;72099;43.176;76.872;2023-11-19T18:56:24;2.97;;;1.80;;
82475;SDS011;72099;43.176;76.872;2023-11-19T18:59:25;5.38;;;2.00;;
82475;SDS011;72099;43.176;76.872;2023-11-19T19:02:26;4.07;;;1.90;;
82475;SDS011;72099;43.176;76.872;2023-11-19T19:05:26;3.33;;;1.85;;
82475;SDS011;72099;43.176;76.872;2023-11-19T19:08:27;5.07;;;2.22;;
82475;SDS011;72099;43.176;76.872;2023-11-19T19:11:29;3.47;;;1.85;;
82475;SDS011;72099;43.176;76.872;2023-11-19T19:14:32;3.45;;;1.70;;
82475;SDS011;72099;43.176;76.872;2023-11-19T19:17:33;5.47;;;2.03;;
82475;SDS011;72099;43.176;76.872;2023-11-19T19:23:35;3.40;;;1.90;;
82475;SDS011;72099;43.176;76.872;2023-11-19T19:26:36;4.25;;;2.45;;
82475;SDS011;72099;43.176;76.872;2023-11-19T19:29:37;4.70;;;2.10;;
82475;SDS011;72099;43.176;76.872;2023-11-19T19:32:38;2.42;;;1.65;;